Rotan, Texas
Current Conditions -  °F | °C
As of 6:55 PM on Saturday 22 Nov 2014 (Local Time) from KSWW Reporting Station
Clear Clear  
Wind Chill: 12°   Ceiling: Unl
Heat Index: 12°   Visibility: 10mi
Dew Point: 12°   Wind: 8mph
Humidity: 100%   Direction: 150°SSE
Pressure: 29.82"   Gusts: NA
Location:  32.85°N, 100.47°W
Report Text: KSWW 230055Z AUTO 15007KT 10SM CLR 12/12 A2982 RMK AO2 LTG DSNT E THRU S T01210121
Loading
Personal Weather Stations






























Interactive Weather Map New forecast layout! Learn more

10-Day Weather Forecast

Advertisements
Track Severe Weather on mobile